createdAt,value
2018-08-12T00:00:16.901Z,94361.78
2018-08-12T00:02:44.707Z,94364.48
2018-08-12T00:05:12.292Z,94368.45
2018-08-12T00:07:39.841Z,94364.69
2018-08-12T00:10:07.974Z,94358.59
2018-08-12T00:12:35.537Z,94361.85
2018-08-12T00:15:03.147Z,94344.20
2018-08-12T00:17:30.697Z,94353.50
2018-08-12T00:19:58.231Z,94348.24
2018-08-12T00:22:25.899Z,94342.75
2018-08-12T00:24:53.512Z,94340.13
2018-08-12T00:27:21.095Z,94342.88
2018-08-12T00:29:48.995Z,94337.68
2018-08-12T00:32:16.528Z,94333.81
2018-08-12T00:34:44.071Z,94340.48
2018-08-12T00:37:11.614Z,94334.20
2018-08-12T00:39:39.142Z,94328.54
2018-08-12T00:42:06.727Z,94329.55
2018-08-12T00:44:34.319Z,94326.52
2018-08-12T00:47:01.867Z,94331.17
2018-08-12T00:49:29.454Z,94329.34
2018-08-12T00:51:57.006Z,94321.81
2018-08-12T00:54:24.895Z,94323.62
2018-08-12T00:56:52.495Z,94319.86
2018-08-12T00:59:19.995Z,94316.84
2018-08-12T01:01:47.575Z,94310.02
2018-08-12T01:04:15.159Z,94310.44
2018-08-12T01:06:43.439Z,94312.38
2018-08-12T01:09:12.543Z,94308.19
2018-08-12T01:11:41.427Z,94309.60
2018-08-12T01:14:09.042Z,94303.73
2018-08-12T01:16:36.615Z,94308.32
2018-08-12T01:19:04.335Z,94304.75
2018-08-12T01:21:31.849Z,94292.61
2018-08-12T01:23:59.417Z,94296.94
2018-08-12T01:26:26.998Z,94289.23
2018-08-12T01:28:54.553Z,94283.24
2018-08-12T01:31:22.192Z,94281.42
2018-08-12T01:33:49.755Z,94279.39
2018-08-12T01:36:17.315Z,94279.77
2018-08-12T01:38:44.873Z,94280.29
2018-08-12T01:41:12.402Z,94285.46
2018-08-12T01:43:39.938Z,94284.80
2018-08-12T01:46:07.490Z,94273.89
2018-08-12T01:48:35.052Z,94276.51
2018-08-12T01:51:02.598Z,94269.75
2018-08-12T01:53:30.485Z,94266.59
2018-08-12T01:55:58.077Z,94266.97
2018-08-12T01:58:25.638Z,94264.76
2018-08-12T02:00:53.203Z,94261.91
2018-08-12T02:03:20.763Z,94263.13
2018-08-12T02:05:48.313Z,94266.86
2018-08-12T02:08:16.121Z,94253.21
2018-08-12T02:10:43.660Z,94263.54
2018-08-12T02:13:11.190Z,94256.45
2018-08-12T02:15:38.747Z,94253.83
2018-08-12T02:18:06.289Z,94253.70
2018-08-12T02:20:33.802Z,94249.84
2018-08-12T02:23:01.399Z,94244.47
2018-08-12T02:25:28.967Z,94243.70
2018-08-12T02:27:56.512Z,94237.91
2018-08-12T02:30:24.043Z,94236.19
2018-08-12T02:32:52.151Z,94234.56
2018-08-12T02:35:19.791Z,94235.00
2018-08-12T02:37:47.325Z,94230.05
2018-08-12T02:40:14.871Z,94229.73
2018-08-12T02:42:42.391Z,94225.97
2018-08-12T02:45:12.093Z,94223.03
2018-08-12T02:47:39.623Z,94219.08
2018-08-12T02:50:07.165Z,94210.88
2018-08-12T02:52:35.381Z,94210.66
2018-08-12T02:55:02.978Z,94214.19
2018-08-12T02:57:30.531Z,94214.44
2018-08-12T02:59:58.098Z,94208.02
2018-08-12T03:02:25.645Z,94205.34
2018-08-12T03:04:53.173Z,94198.73
2018-08-12T03:07:20.723Z,94198.09
2018-08-12T03:09:48.251Z,94191.57
2018-08-12T03:12:15.838Z,94198.34
2018-08-12T03:14:43.417Z,94195.39
2018-08-12T03:17:10.995Z,94195.80
2018-08-12T03:19:38.528Z,94202.29
2018-08-12T03:22:06.089Z,94194.89
2018-08-12T03:24:33.626Z,94189.91
2018-08-12T03:27:01.154Z,94187.46
2018-08-12T03:29:28.707Z,94180.58
2018-08-12T03:31:56.227Z,94179.38
2018-08-12T03:34:23.755Z,94174.91
2018-08-12T03:36:51.671Z,94175.94
2018-08-12T03:39:19.187Z,94170.67
2018-08-12T03:41:46.741Z,94173.64
2018-08-12T03:44:14.277Z,94168.80
2018-08-12T03:46:41.810Z,94161.09
2018-08-12T03:49:09.355Z,94153.88
2018-08-12T03:51:36.922Z,94153.41
2018-08-12T03:54:04.498Z,94153.70
2018-08-12T03:56:32.042Z,94155.05
2018-08-12T03:58:59.561Z,94159.86
2018-08-12T04:01:27.086Z,94159.02
2018-08-12T04:03:54.655Z,94156.53
2018-08-12T04:06:22.178Z,94150.59
2018-08-12T04:08:49.713Z,94152.53
2018-08-12T04:11:17.590Z,94148.58
2018-08-12T04:13:45.156Z,94150.90
2018-08-12T04:16:12.725Z,94151.59
2018-08-12T04:18:40.295Z,94146.33
2018-08-12T04:21:07.867Z,94143.83
2018-08-12T04:23:35.430Z,94146.17
2018-08-12T04:26:03.070Z,94146.95
2018-08-12T04:28:30.585Z,94147.48
2018-08-12T04:30:58.138Z,94148.27
2018-08-12T04:33:25.682Z,94147.14
2018-08-12T04:35:53.209Z,94152.66
2018-08-12T04:38:20.747Z,94156.14
2018-08-12T04:40:48.334Z,94156.27
2018-08-12T04:43:16.059Z,94151.03
2018-08-12T04:45:43.625Z,94152.91
2018-08-12T04:48:11.135Z,94157.76
2018-08-12T04:50:38.670Z,94150.10
2018-08-12T04:53:06.450Z,94154.42
2018-08-12T04:55:34.015Z,94156.47
2018-08-12T04:58:01.525Z,94150.84
2018-08-12T05:00:29.062Z,94150.74
2018-08-12T05:02:56.645Z,94150.72
2018-08-12T05:05:24.222Z,94153.65
2018-08-12T05:07:51.751Z,94138.81
2018-08-12T05:10:19.454Z,94142.63
2018-08-12T05:12:46.983Z,94141.45
2018-08-12T05:15:14.494Z,94139.34
2018-08-12T05:17:42.090Z,94140.11
2018-08-12T05:20:09.822Z,94129.16
2018-08-12T05:22:37.699Z,94121.66
2018-08-12T05:25:05.573Z,94116.67
2018-08-12T05:27:33.235Z,94124.80
2018-08-12T05:30:01.119Z,94121.30
2018-08-12T05:32:28.654Z,94121.70
2018-08-12T05:34:56.219Z,94126.58
2018-08-12T05:37:24.102Z,94122.06
2018-08-12T05:39:51.656Z,94118.09
2018-08-12T05:42:19.174Z,94119.52
2018-08-12T05:44:46.798Z,94101.58
2018-08-12T05:47:14.510Z,94100.35
2018-08-12T05:49:42.082Z,94096.02
2018-08-12T05:52:09.878Z,94095.52
2018-08-12T05:54:37.422Z,94096.83
2018-08-12T05:57:05.014Z,94092.48
2018-08-12T05:59:32.597Z,94089.36
2018-08-12T06:02:00.149Z,94094.14
2018-08-12T06:04:28.070Z,94088.56
2018-08-12T06:06:55.593Z,94091.28
2018-08-12T06:09:23.131Z,94083.87
2018-08-12T06:11:50.720Z,94080.33
2018-08-12T06:14:18.261Z,94074.14
2018-08-12T06:16:45.820Z,94068.12
2018-08-12T06:19:13.382Z,94064.66
2018-08-12T06:21:40.911Z,94059.40
2018-08-12T06:24:08.439Z,94056.31
2018-08-12T06:26:36.006Z,94049.69
2018-08-12T06:29:03.574Z,94046.88
2018-08-12T06:31:31.225Z,94048.94
2018-08-12T06:33:58.694Z,94046.09
2018-08-12T06:36:26.307Z,94052.64
2018-08-12T06:38:53.878Z,94049.09
2018-08-12T06:41:21.417Z,94047.18
2018-08-12T06:43:48.953Z,94053.31
2018-08-12T06:46:16.501Z,94051.41
2018-08-12T06:48:44.133Z,94056.77
2018-08-12T06:51:11.807Z,94053.11
2018-08-12T06:53:39.382Z,94058.80
2018-08-12T06:56:07.329Z,94055.47
2018-08-12T06:58:34.913Z,94057.40
2018-08-12T07:01:02.508Z,94062.30
2018-08-12T07:03:30.058Z,94062.06
2018-08-12T07:05:57.642Z,94058.80
2018-08-12T07:08:25.223Z,94058.22
2018-08-12T07:10:52.778Z,94050.23
2018-08-12T07:13:20.370Z,94053.67
2018-08-12T07:15:47.918Z,94052.05
2018-08-12T07:18:15.447Z,94052.92
2018-08-12T07:20:43.017Z,94052.14
2018-08-12T07:23:10.555Z,94053.09
2018-08-12T07:25:38.061Z,94051.84
2018-08-12T07:28:05.626Z,94049.82
2018-08-12T07:30:33.178Z,94046.05
2018-08-12T07:33:00.791Z,94043.84
2018-08-12T07:35:28.378Z,94042.28
2018-08-12T07:37:55.965Z,94044.94
2018-08-12T07:40:23.534Z,94045.29
2018-08-12T07:42:51.207Z,94038.86
2018-08-12T07:45:18.848Z,94038.52
2018-08-12T07:47:46.401Z,94034.39
2018-08-12T07:50:13.962Z,94039.98
2018-08-12T07:52:42.922Z,94030.34
2018-08-12T07:55:11.454Z,94031.16
2018-08-12T07:57:39.242Z,94028.73
2018-08-12T08:00:08.273Z,94026.81
2018-08-12T08:02:35.806Z,94029.31
2018-08-12T08:05:03.928Z,94022.96
2018-08-12T08:07:31.504Z,94021.75
2018-08-12T08:09:59.071Z,94026.38
2018-08-12T08:12:26.672Z,94018.13
2018-08-12T08:14:54.214Z,94020.70
2018-08-12T08:17:21.989Z,94023.55
2018-08-12T08:19:49.582Z,94018.66
2018-08-12T08:22:17.114Z,94020.11
2018-08-12T08:24:45.303Z,94023.63
2018-08-12T08:27:12.839Z,94020.91
2018-08-12T08:29:40.454Z,94023.44
2018-08-12T08:32:08.155Z,94017.92
2018-08-12T08:34:35.670Z,94018.00
2018-08-12T08:37:03.277Z,94018.25
2018-08-12T08:39:30.882Z,94012.10
2018-08-12T08:41:58.482Z,94018.66
2018-08-12T08:44:26.026Z,94015.12
2018-08-12T08:46:53.630Z,94015.28
2018-08-12T08:49:21.187Z,94016.34
2018-08-12T08:51:48.735Z,94015.15
2018-08-12T08:54:16.605Z,94014.32
2018-08-12T08:56:44.705Z,94020.28
2018-08-12T08:59:12.955Z,94021.43
2018-08-12T09:01:40.777Z,94013.73
2018-08-12T09:04:08.373Z,94016.68
2018-08-12T09:06:35.930Z,94015.64
2018-08-12T09:09:06.543Z,94011.23
2018-08-12T09:11:34.926Z,94006.84
2018-08-12T09:14:03.397Z,94007.89
2018-08-12T09:16:30.981Z,94009.55
2018-08-12T09:18:58.554Z,94008.34
2018-08-12T09:21:27.847Z,94004.97
2018-08-12T09:23:55.424Z,94007.37
2018-08-12T09:26:22.977Z,94000.63
2018-08-12T09:28:50.550Z,93995.30
2018-08-12T09:31:18.092Z,93998.34
2018-08-12T09:33:45.615Z,93998.97
2018-08-12T09:36:13.183Z,93991.84
2018-08-12T09:38:40.755Z,93993.39
2018-08-12T09:41:08.627Z,93990.66
2018-08-12T09:43:36.135Z,93982.24
2018-08-12T09:46:03.723Z,93989.72
2018-08-12T09:48:31.307Z,93980.02
2018-08-12T09:50:59.503Z,93979.08
2018-08-12T09:53:27.061Z,93977.01
2018-08-12T09:55:54.628Z,93972.02
2018-08-12T09:58:22.240Z,93967.27
2018-08-12T10:00:49.803Z,93967.62
2018-08-12T10:03:17.328Z,93966.56
2018-08-12T10:05:44.930Z,93974.13
2018-08-12T10:08:12.466Z,93971.33
2018-08-12T10:10:40.060Z,93964.77
2018-08-12T10:13:07.730Z,93967.31
2018-08-12T10:15:35.421Z,93963.81
2018-08-12T10:18:04.082Z,93962.66
2018-08-12T10:20:31.713Z,93963.52
2018-08-12T10:23:00.166Z,93957.86
2018-08-12T10:25:27.733Z,93953.84
2018-08-12T10:27:55.265Z,93950.95
2018-08-12T10:30:22.814Z,93945.27
2018-08-12T10:32:51.124Z,93943.59
2018-08-12T10:35:18.742Z,93937.64
2018-08-12T10:37:46.415Z,93938.23
2018-08-12T10:40:15.251Z,93932.67
2018-08-12T10:42:43.338Z,93940.20
2018-08-12T10:45:11.695Z,93925.30
2018-08-12T10:47:40.078Z,93918.64
2018-08-12T10:50:09.977Z,93921.95
2018-08-12T10:52:37.948Z,93924.37
2018-08-12T10:55:06.010Z,93924.27
2018-08-12T10:57:33.810Z,93919.59
2018-08-12T11:00:01.629Z,93914.69
2018-08-12T11:02:29.281Z,93903.20
2018-08-12T11:04:56.944Z,93900.23
2018-08-12T11:07:24.635Z,93903.86
2018-08-12T11:09:52.278Z,93900.85
2018-08-12T11:12:19.909Z,93903.86
2018-08-12T11:14:47.443Z,93899.03
2018-08-12T11:17:15.054Z,93898.16
2018-08-12T11:19:42.661Z,93894.73
2018-08-12T11:22:10.208Z,93901.91
2018-08-12T11:24:37.807Z,93898.13
2018-08-12T11:27:05.522Z,93892.38
2018-08-12T11:29:33.104Z,93897.28
2018-08-12T11:32:00.718Z,93893.81
2018-08-12T11:34:28.258Z,93896.94
2018-08-12T11:36:55.817Z,93889.27
2018-08-12T11:39:23.398Z,93891.02
2018-08-12T11:41:50.971Z,93891.41
2018-08-12T11:44:18.515Z,93882.16
2018-08-12T11:46:46.072Z,93881.47
2018-08-12T11:49:13.642Z,93872.62
2018-08-12T11:51:42.282Z,93869.89
2018-08-12T11:54:09.808Z,93866.23
2018-08-12T11:56:37.359Z,93862.45
2018-08-12T11:59:04.939Z,93858.83
2018-08-12T12:01:32.507Z,93861.54
2018-08-12T12:04:00.110Z,93853.70
2018-08-12T12:06:27.630Z,93850.52
2018-08-12T12:08:56.174Z,93843.75
2018-08-12T12:11:23.805Z,93830.44
2018-08-12T12:13:51.354Z,93844.18
2018-08-12T12:16:18.903Z,93841.53
2018-08-12T12:18:46.447Z,93839.12
2018-08-12T12:21:14.030Z,93830.92
2018-08-12T12:23:41.751Z,93833.48
2018-08-12T12:26:09.337Z,93827.16
2018-08-12T12:28:36.857Z,93830.27
2018-08-12T12:31:04.490Z,93830.05
2018-08-12T12:33:32.737Z,93826.33
2018-08-12T12:36:00.325Z,93823.77
2018-08-12T12:38:27.873Z,93809.60
2018-08-12T12:40:55.450Z,93812.95
2018-08-12T12:43:23.090Z,93813.78
2018-08-12T12:45:50.668Z,93812.63
2018-08-12T12:48:18.577Z,93804.97
2018-08-12T12:50:46.179Z,93801.83
2018-08-12T12:53:13.766Z,93802.63
2018-08-12T12:55:41.314Z,93796.33
2018-08-12T12:58:08.914Z,93794.36
2018-08-12T13:00:36.782Z,93792.52
2018-08-12T13:03:04.413Z,93789.18
2018-08-12T13:05:32.008Z,93793.19
2018-08-12T13:07:59.591Z,93791.33
2018-08-12T13:10:27.145Z,93781.69
2018-08-12T13:12:54.766Z,93782.95
2018-08-12T13:15:22.354Z,93779.37
2018-08-12T13:17:49.947Z,93779.47
2018-08-12T13:20:18.700Z,93774.64
2018-08-12T13:22:47.164Z,93772.14
2018-08-12T13:25:16.272Z,93762.92
2018-08-12T13:27:44.222Z,93757.38
2018-08-12T13:30:12.793Z,93754.61
2018-08-12T13:32:41.396Z,93749.86
2018-08-12T13:35:08.987Z,93738.59
2018-08-12T13:37:36.893Z,93750.91
2018-08-12T13:40:05.209Z,93755.08
2018-08-12T13:42:32.796Z,93739.14
2018-08-12T13:45:00.361Z,93737.66
2018-08-12T13:47:27.999Z,93746.87
2018-08-12T13:49:55.580Z,93738.41
2018-08-12T13:52:23.122Z,93736.30
2018-08-12T13:54:50.813Z,93732.00
2018-08-12T13:57:18.422Z,93730.83
2018-08-12T13:59:46.138Z,93723.72
2018-08-12T14:02:13.711Z,93731.08
2018-08-12T14:04:41.245Z,93717.70
2018-08-12T14:07:09.146Z,93717.14
2018-08-12T14:09:36.678Z,93711.02
2018-08-12T14:12:04.255Z,93704.27
2018-08-12T14:14:31.836Z,93700.11
2018-08-12T14:16:59.434Z,93705.07
2018-08-12T14:19:26.992Z,93701.88
2018-08-12T14:21:54.539Z,93698.52
2018-08-12T14:24:22.067Z,93697.14
2018-08-12T14:26:49.903Z,93693.25
2018-08-12T14:29:17.527Z,93689.09
2018-08-12T14:31:45.205Z,93689.14
2018-08-12T14:34:12.798Z,93676.43
2018-08-12T14:36:40.346Z,93672.59
2018-08-12T14:39:08.236Z,93670.39
2018-08-12T14:41:35.857Z,93675.80
2018-08-12T14:44:03.524Z,93671.49
2018-08-12T14:46:31.113Z,93668.04
2018-08-12T14:48:58.684Z,93652.11
2018-08-12T14:51:26.239Z,93656.12
2018-08-12T14:53:53.797Z,93653.08
2018-08-12T14:56:21.347Z,93649.73
2018-08-12T14:58:48.981Z,93635.91
2018-08-12T15:01:16.571Z,93634.16
2018-08-12T15:03:44.117Z,93627.80
2018-08-12T15:06:12.298Z,93632.17
2018-08-12T15:08:39.825Z,93630.81
2018-08-12T15:11:07.470Z,93630.20
2018-08-12T15:13:35.942Z,93624.36
2018-08-12T15:16:03.510Z,93627.45
2018-08-12T15:18:31.113Z,93625.05
2018-08-12T15:20:58.702Z,93627.52
2018-08-12T15:23:26.675Z,93623.11
2018-08-12T15:25:54.211Z,93620.50
2018-08-12T15:28:21.734Z,93620.18
2018-08-12T15:30:49.295Z,93620.39
2018-08-12T15:33:16.866Z,93619.29
2018-08-12T15:35:44.458Z,93617.20
2018-08-12T15:38:12.031Z,93619.44
2018-08-12T15:40:39.611Z,93615.30
2018-08-12T15:43:07.162Z,93616.61
2018-08-12T15:45:34.747Z,93611.80
2018-08-12T15:48:02.353Z,93613.39
2018-08-12T15:50:29.887Z,93610.55
2018-08-12T15:52:57.413Z,93605.79
2018-08-12T15:55:25.150Z,93604.78
2018-08-12T15:57:52.736Z,93607.89
2018-08-12T16:00:21.510Z,93601.53
2018-08-12T16:02:49.170Z,93603.73
2018-08-12T16:05:16.806Z,93605.72
2018-08-12T16:07:45.482Z,93605.28
2018-08-12T16:10:16.121Z,93603.38
2018-08-12T16:12:44.081Z,93601.31
2018-08-12T16:15:12.360Z,93599.33
2018-08-12T16:17:40.688Z,93593.16
2018-08-12T16:20:08.952Z,93592.25
2018-08-12T16:22:36.998Z,93588.67
2018-08-12T16:25:05.616Z,93590.66
2018-08-12T16:27:33.206Z,93586.02
2018-08-12T16:30:00.914Z,93590.70
2018-08-12T16:32:28.453Z,93584.54
2018-08-12T16:34:56.096Z,93580.38
2018-08-12T16:37:23.699Z,93582.47
2018-08-12T16:39:51.261Z,93579.28
2018-08-12T16:42:18.794Z,93576.84
2018-08-12T16:44:46.333Z,93575.95
2018-08-12T16:47:13.984Z,93573.95
2018-08-12T16:49:41.544Z,93570.55
2018-08-12T16:52:09.122Z,93569.34
2018-08-12T16:54:36.837Z,93567.41
2018-08-12T16:57:04.650Z,93566.89
2018-08-12T16:59:32.223Z,93560.96
2018-08-12T17:01:59.792Z,93565.05
2018-08-12T17:04:27.533Z,93566.17
2018-08-12T17:06:55.103Z,93558.56
2018-08-12T17:09:22.572Z,93554.52
2018-08-12T17:11:50.202Z,93554.78
2018-08-12T17:14:17.774Z,93555.63
2018-08-12T17:16:45.310Z,93556.55
2018-08-12T17:19:13.213Z,93556.38
2018-08-12T17:21:40.810Z,93556.84
2018-08-12T17:24:08.914Z,93561.02
2018-08-12T17:26:36.529Z,93561.09
2018-08-12T17:29:04.215Z,93558.19
2018-08-12T17:31:31.781Z,93563.79
2018-08-12T17:33:59.381Z,93563.53
2018-08-12T17:36:27.536Z,93559.48
2018-08-12T17:38:55.143Z,93557.45
2018-08-12T17:41:22.736Z,93558.88
2018-08-12T17:43:50.637Z,93557.72
2018-08-12T17:46:18.206Z,93555.65
2018-08-12T17:48:45.805Z,93552.56
2018-08-12T17:51:13.373Z,93557.44
2018-08-12T17:53:40.925Z,93553.04
2018-08-12T17:56:08.549Z,93552.86
2018-08-12T17:58:36.112Z,93554.72
2018-08-12T18:01:03.693Z,93560.54
2018-08-12T18:03:31.581Z,93557.66
2018-08-12T18:05:59.131Z,93555.95
2018-08-12T18:08:26.721Z,93558.16
2018-08-12T18:10:54.488Z,93562.78
2018-08-12T18:13:22.978Z,93558.23
2018-08-12T18:15:50.558Z,93562.05
2018-08-12T18:18:18.121Z,93565.63
2018-08-12T18:20:45.681Z,93563.83
2018-08-12T18:23:13.291Z,93569.59
2018-08-12T18:25:40.901Z,93571.36
2018-08-12T18:28:08.742Z,93572.29
2018-08-12T18:30:36.319Z,93574.48
2018-08-12T18:33:03.944Z,93573.91
2018-08-12T18:35:31.506Z,93570.70
2018-08-12T18:37:59.065Z,93577.57
2018-08-12T18:40:26.652Z,93569.82
2018-08-12T18:42:54.236Z,93581.28
2018-08-12T18:45:21.841Z,93582.20
2018-08-12T18:47:49.413Z,93580.77
2018-08-12T18:50:17.023Z,93588.22
2018-08-12T18:52:44.612Z,93588.06
2018-08-12T18:55:12.795Z,93586.88
2018-08-12T18:57:40.366Z,93588.09
2018-08-12T19:00:08.858Z,93590.45
2018-08-12T19:02:36.738Z,93593.95
2018-08-12T19:05:04.600Z,93607.17
2018-08-12T19:07:32.148Z,93602.16
2018-08-12T19:09:59.708Z,93598.77
2018-08-12T19:12:27.306Z,93603.23
2018-08-12T19:14:54.875Z,93612.05
2018-08-12T19:17:22.458Z,93598.75
2018-08-12T19:19:50.018Z,93604.33
2018-08-12T19:22:17.666Z,93606.63
2018-08-12T19:24:45.262Z,93606.45
2018-08-12T19:27:12.865Z,93605.36
2018-08-12T19:29:40.474Z,93603.08
2018-08-12T19:32:08.133Z,93605.80
2018-08-12T19:34:35.844Z,93602.62
2018-08-12T19:37:03.465Z,93602.62
2018-08-12T19:39:31.046Z,93605.14
2018-08-12T19:41:58.630Z,93600.14
2018-08-12T19:44:26.285Z,93589.17
2018-08-12T19:46:53.914Z,93588.72
2018-08-12T19:49:21.379Z,93592.21
2018-08-12T19:51:49.010Z,93591.97
2018-08-12T19:54:16.547Z,93590.37
2018-08-12T19:56:44.089Z,93587.48
2018-08-12T19:59:11.697Z,93586.95
2018-08-12T20:01:39.303Z,93593.66
2018-08-12T20:04:06.899Z,93596.88
2018-08-12T20:06:34.755Z,93593.95
2018-08-12T20:09:02.559Z,93589.42
2018-08-12T20:11:30.142Z,93588.38
2018-08-12T20:13:57.959Z,93585.45
2018-08-12T20:16:25.529Z,93584.63
2018-08-12T20:18:53.182Z,93581.68
2018-08-12T20:21:20.931Z,93580.36
2018-08-12T20:23:48.480Z,93585.16
2018-08-12T20:26:16.070Z,93582.22
2018-08-12T20:28:43.606Z,93583.83
2018-08-12T20:31:11.175Z,93585.16
2018-08-12T20:33:38.722Z,93583.30
2018-08-12T20:36:06.447Z,93586.50
2018-08-12T20:38:33.999Z,93579.02
2018-08-12T20:41:01.567Z,93577.95
2018-08-12T20:43:30.755Z,93573.67
2018-08-12T20:45:58.290Z,93575.02
2018-08-12T20:48:25.946Z,93574.45
2018-08-12T20:50:53.539Z,93577.61
2018-08-12T20:53:21.110Z,93571.73
2018-08-12T20:55:48.685Z,93579.47
2018-08-12T20:58:16.246Z,93572.81
2018-08-12T21:00:44.060Z,93576.75
2018-08-12T21:03:11.603Z,93573.80
2018-08-12T21:05:39.172Z,93570.31
2018-08-12T21:08:06.986Z,93569.77
2018-08-12T21:10:34.534Z,93570.52
2018-08-12T21:13:02.082Z,93569.19
2018-08-12T21:15:29.640Z,93567.58
2018-08-12T21:17:57.227Z,93572.91
2018-08-12T21:20:24.835Z,93570.53
2018-08-12T21:22:52.397Z,93567.05
2018-08-12T21:25:20.000Z,93569.14
2018-08-12T21:27:47.593Z,93567.02
2018-08-12T21:30:15.230Z,93566.73
2018-08-12T21:32:42.827Z,93566.11
2018-08-12T21:35:10.401Z,93568.06
2018-08-12T21:37:37.983Z,93570.75
2018-08-12T21:40:05.590Z,93575.80
2018-08-12T21:42:33.157Z,93575.77
2018-08-12T21:45:00.772Z,93574.63
2018-08-12T21:47:28.311Z,93574.83
2018-08-12T21:49:55.819Z,93568.95
2018-08-12T21:52:23.431Z,93570.81
2018-08-12T21:54:51.018Z,93577.36
2018-08-12T21:57:18.603Z,93578.44
2018-08-12T21:59:46.183Z,93574.36
2018-08-12T22:02:13.770Z,93575.75
2018-08-12T22:04:41.310Z,93570.61
2018-08-12T22:07:08.950Z,93575.19
2018-08-12T22:09:36.530Z,93575.06
2018-08-12T22:12:04.216Z,93573.17
2018-08-12T22:14:31.749Z,93575.53
2018-08-12T22:16:59.275Z,93570.97
2018-08-12T22:19:27.202Z,93565.72
2018-08-12T22:21:54.738Z,93565.97
2018-08-12T22:24:22.346Z,93560.05
2018-08-12T22:26:49.898Z,93562.95
2018-08-12T22:29:17.468Z,93559.44
2018-08-12T22:31:45.070Z,93555.94
2018-08-12T22:34:12.626Z,93551.05
2018-08-12T22:36:40.187Z,93551.75
2018-08-12T22:39:08.024Z,93550.00
2018-08-12T22:41:35.565Z,93554.55
2018-08-12T22:44:03.221Z,93550.81
2018-08-12T22:46:30.796Z,93545.56
2018-08-12T22:48:58.302Z,93548.75
2018-08-12T22:51:26.027Z,93534.28
2018-08-12T22:53:53.638Z,93537.40
2018-08-12T22:56:21.232Z,93534.42
2018-08-12T22:58:48.813Z,93538.37
2018-08-12T23:01:16.426Z,93536.80
2018-08-12T23:03:43.970Z,93527.98
2018-08-12T23:06:11.486Z,93527.49
2018-08-12T23:08:39.200Z,93523.98
2018-08-12T23:11:06.782Z,93519.80
2018-08-12T23:13:34.328Z,93513.30
2018-08-12T23:16:07.594Z,93508.52
2018-08-12T23:18:35.125Z,93506.46
2018-08-12T23:21:02.722Z,93511.28
2018-08-12T23:23:30.282Z,93505.50
2018-08-12T23:25:57.823Z,93505.09
2018-08-12T23:28:25.358Z,93501.82
2018-08-12T23:30:53.227Z,93502.34
2018-08-12T23:33:20.763Z,93497.63
2018-08-12T23:35:48.447Z,93497.06
2018-08-12T23:38:16.031Z,93498.63
2018-08-12T23:40:43.642Z,93493.03
2018-08-12T23:43:11.199Z,93493.80
2018-08-12T23:45:39.041Z,93493.36
2018-08-12T23:48:06.590Z,93494.80
2018-08-12T23:50:34.103Z,93491.66
2018-08-12T23:53:01.651Z,93490.06
2018-08-12T23:55:29.186Z,93491.14
2018-08-12T23:57:56.768Z,93482.08
